createdAt,value
2019-05-15T00:04:20.103Z,62.30
2019-05-15T00:07:01.593Z,63.40
2019-05-15T00:09:42.378Z,63.70
2019-05-15T00:12:23.329Z,63.20
2019-05-15T00:15:04.790Z,63.60
2019-05-15T00:17:48.344Z,64.40
2019-05-15T00:20:29.497Z,66.10
2019-05-15T00:23:10.601Z,66.90
2019-05-15T00:25:52.331Z,67.30
2019-05-15T00:28:33.819Z,66.30
2019-05-15T00:31:14.857Z,64.80
2019-05-15T00:33:56.203Z,64.00
2019-05-15T00:36:38.300Z,64.30
2019-05-15T00:39:19.725Z,66.90
2019-05-15T00:42:01.520Z,67.40
2019-05-15T00:44:42.471Z,67.40
2019-05-15T00:47:23.331Z,66.40
2019-05-15T00:50:04.253Z,68.10
2019-05-15T00:52:45.074Z,69.20
2019-05-15T00:58:45.127Z,69.80
2019-05-15T01:01:28.710Z,69.10
2019-05-15T01:03:58.654Z,70.80
2019-05-15T01:06:48.813Z,71.30
2019-05-15T01:13:21.977Z,70.80
2019-05-15T01:16:10.806Z,70.80
2019-05-15T01:18:59.341Z,70.80
2019-05-15T01:22:05.258Z,71.60
2019-05-15T01:28:30.750Z,73.00
2019-05-15T01:34:29.488Z,72.70
2019-05-15T01:37:11.562Z,73.90
2019-05-15T01:39:52.591Z,74.50
2019-05-15T01:42:34.163Z,75.10
2019-05-15T01:48:34.269Z,74.40
2019-05-15T01:51:15.677Z,73.90
2019-05-15T01:53:58.447Z,73.10
2019-05-15T01:56:39.601Z,73.40
2019-05-15T01:59:21.206Z,73.60
2019-05-15T02:02:02.333Z,74.10
2019-05-15T02:10:53.658Z,75.40
2019-05-15T02:13:35.048Z,76.90
2019-05-15T02:16:18.984Z,75.30
2019-05-15T02:18:59.337Z,74.10
2019-05-15T02:21:40.933Z,73.90
2019-05-15T02:24:22.658Z,74.40
2019-05-15T02:27:04.076Z,75.00
2019-05-15T02:29:45.436Z,75.30
2019-05-15T02:32:26.090Z,75.30
2019-05-15T02:35:09.938Z,75.50
2019-05-15T02:37:49.446Z,75.60
2019-05-15T02:40:30.286Z,76.70
2019-05-15T02:46:19.760Z,77.90
2019-05-15T02:52:09.595Z,78.50
2019-05-15T02:54:49.860Z,79.10
2019-05-15T03:00:53.469Z,80.00
2019-05-15T03:03:21.048Z,80.80
2019-05-15T03:06:10.232Z,81.30
2019-05-15T03:09:00.007Z,81.70
2019-05-15T03:11:49.605Z,82.30
2019-05-15T03:14:40.099Z,83.10
2019-05-15T03:17:29.855Z,83.90
2019-05-15T03:20:38.802Z,84.50
2019-05-15T03:23:29.499Z,85.20
2019-05-15T03:26:19.810Z,86.10
2019-05-15T03:29:00.628Z,86.70
2019-05-15T03:31:58.881Z,87.20
2019-05-15T03:34:35.238Z,87.50
2019-05-15T03:37:11.630Z,88.00
2019-05-15T03:39:51.844Z,88.60
2019-05-15T03:42:32.306Z,89.70
2019-05-15T03:45:13.084Z,89.40
2019-05-15T03:51:13.960Z,89.50
2019-05-15T03:53:55.405Z,89.60
2019-05-15T03:56:39.371Z,89.60
2019-05-15T03:59:19.295Z,89.80
2019-05-15T04:02:00.421Z,89.90
2019-05-15T04:07:50.325Z,89.60
2019-05-15T04:10:31.826Z,86.10
2019-05-15T04:16:30.527Z,80.50
2019-05-15T04:19:10.092Z,77.80
2019-05-15T04:22:00.037Z,75.00
2019-05-15T04:24:49.644Z,73.80
2019-05-15T04:27:32.717Z,71.50
2019-05-15T04:33:19.893Z,69.60
2019-05-15T04:36:01.338Z,67.50
2019-05-15T04:38:42.895Z,67.90
2019-05-15T04:44:29.132Z,67.50
2019-05-15T04:47:10.004Z,66.90
2019-05-15T04:49:51.430Z,64.00
2019-05-15T04:52:32.301Z,62.40
2019-05-15T04:58:20.907Z,63.10
2019-05-15T05:01:01.928Z,61.00
2019-05-15T05:03:43.403Z,61.40
2019-05-15T05:06:24.058Z,62.00
2019-05-15T05:09:08.941Z,59.50
2019-05-15T05:11:48.994Z,60.40
2019-05-15T05:14:30.450Z,59.80
2019-05-15T05:17:11.240Z,58.80
2019-05-15T05:19:52.173Z,57.50
2019-05-15T05:22:33.164Z,56.30
2019-05-15T05:25:14.029Z,59.00
2019-05-15T05:27:55.258Z,59.60
2019-05-15T05:30:38.565Z,58.50
2019-05-15T05:36:38.761Z,58.60
2019-05-15T05:39:20.066Z,57.90
2019-05-15T05:42:01.368Z,57.90
2019-05-15T05:48:01.366Z,53.20
2019-05-15T05:50:44.449Z,52.60
2019-05-15T05:53:25.502Z,52.80
2019-05-15T05:56:08.915Z,52.70
2019-05-15T05:58:50.461Z,49.40
2019-05-15T06:01:31.966Z,50.00
2019-05-15T06:04:13.321Z,49.80
2019-05-15T06:07:06.206Z,49.00
2019-05-15T06:09:43.118Z,47.50
2019-05-15T06:12:31.609Z,46.10
2019-05-15T06:18:08.883Z,45.60
2019-05-15T06:20:39.482Z,45.60
2019-05-15T06:23:09.373Z,46.40
2019-05-15T06:25:59.289Z,45.50
2019-05-15T06:28:40.294Z,44.30
2019-05-15T06:31:21.611Z,44.30
2019-05-15T06:34:03.077Z,45.80
2019-05-15T06:36:43.850Z,46.80
2019-05-15T06:39:25.247Z,45.30
2019-05-15T06:42:08.769Z,48.10
2019-05-15T06:44:50.174Z,47.30
2019-05-15T06:47:30.976Z,46.70
2019-05-15T06:50:12.158Z,47.20
2019-05-15T06:52:53.202Z,46.90
2019-05-15T06:55:33.922Z,46.20
2019-05-15T06:58:14.643Z,46.60
2019-05-15T07:00:58.988Z,47.10
2019-05-15T07:03:39.441Z,49.60
2019-05-15T07:06:20.398Z,49.50
2019-05-15T07:09:01.410Z,49.50
2019-05-15T07:14:48.742Z,48.10
2019-05-15T07:17:29.923Z,49.40
2019-05-15T07:20:11.101Z,48.30
2019-05-15T07:22:52.004Z,48.10
2019-05-15T07:25:33.405Z,46.80
2019-05-15T07:28:33.970Z,47.00
2019-05-15T07:37:43.320Z,45.80
2019-05-15T07:40:24.438Z,46.00
2019-05-15T07:46:11.462Z,46.20
2019-05-15T07:48:52.848Z,46.30
2019-05-15T07:51:34.658Z,46.00
2019-05-15T07:54:18.241Z,45.50
2019-05-15T07:56:58.776Z,45.80
2019-05-15T07:59:39.879Z,42.00
2019-05-15T08:02:21.438Z,44.00
2019-05-15T08:05:02.854Z,41.90
2019-05-15T08:07:43.732Z,42.90
2019-05-15T08:10:52.560Z,42.10
2019-05-15T08:13:41.184Z,42.50
2019-05-15T08:16:29.654Z,41.90
2019-05-15T08:19:18.614Z,41.80
2019-05-15T08:22:08.926Z,41.70
2019-05-15T08:24:59.109Z,41.00
2019-05-15T08:27:40.248Z,40.60
2019-05-15T08:30:21.060Z,39.60
2019-05-15T08:33:02.114Z,40.50
2019-05-15T08:35:45.893Z,38.70
2019-05-15T08:38:25.294Z,38.30
2019-05-15T08:41:11.165Z,38.70
2019-05-15T08:43:49.448Z,39.10
2019-05-15T08:46:30.427Z,38.80
2019-05-15T08:49:11.157Z,38.60
2019-05-15T08:51:52.476Z,39.50
2019-05-15T08:54:34.019Z,37.80
2019-05-15T08:57:15.355Z,38.10
2019-05-15T08:59:58.262Z,38.60
2019-05-15T09:02:38.637Z,36.70
2019-05-15T09:05:19.491Z,37.10
2019-05-15T09:08:01.127Z,37.20
2019-05-15T09:10:41.874Z,36.40
2019-05-15T09:16:38.532Z,38.20
2019-05-15T09:19:18.640Z,34.80
2019-05-15T09:21:58.702Z,35.40
2019-05-15T09:24:48.829Z,34.00
2019-05-15T09:27:30.854Z,34.60
2019-05-15T09:30:11.866Z,34.50
2019-05-15T09:32:41.286Z,34.80
2019-05-15T09:35:29.896Z,34.30
2019-05-15T09:38:19.014Z,32.70
2019-05-15T09:41:09.221Z,33.50
2019-05-15T09:43:59.002Z,34.60
2019-05-15T09:49:38.978Z,34.20
2019-05-15T09:52:29.883Z,33.90
2019-05-15T09:55:38.131Z,34.50
2019-05-15T10:02:12.153Z,34.40
2019-05-15T10:05:06.710Z,34.50
2019-05-15T10:10:39.604Z,34.50
2019-05-15T10:13:28.958Z,34.30
2019-05-15T10:16:19.835Z,34.70
2019-05-15T10:19:08.997Z,32.90
2019-05-15T10:21:59.443Z,32.90
2019-05-15T10:24:50.865Z,32.90
2019-05-15T10:27:39.965Z,32.50
2019-05-15T10:30:22.231Z,32.40
2019-05-15T10:33:03.166Z,31.90
2019-05-15T10:35:43.845Z,32.20
2019-05-15T10:41:45.091Z,30.70
2019-05-15T10:44:25.791Z,31.10
2019-05-15T10:47:08.857Z,31.60
2019-05-15T10:49:49.893Z,31.50
2019-05-15T10:52:31.003Z,31.20
2019-05-15T10:55:11.730Z,30.00
2019-05-15T10:57:52.607Z,29.90
2019-05-15T11:00:33.587Z,31.10
2019-05-15T11:03:13.213Z,29.80
2019-05-15T11:06:01.710Z,30.40
2019-05-15T11:08:51.497Z,30.70
2019-05-15T11:11:40.606Z,30.30
2019-05-15T11:14:30.741Z,29.60
2019-05-15T11:17:11.758Z,29.40
2019-05-15T11:22:59.083Z,29.90
2019-05-15T11:25:40.644Z,30.30
2019-05-15T11:28:21.925Z,29.50
2019-05-15T11:31:02.934Z,28.80
2019-05-15T11:33:44.811Z,28.80
2019-05-15T11:36:28.572Z,28.60
2019-05-15T11:39:09.297Z,29.20
2019-05-15T11:41:50.981Z,29.10
2019-05-15T11:44:20.418Z,29.50
2019-05-15T11:50:41.009Z,28.90
2019-05-15T11:53:29.494Z,28.80
2019-05-15T11:56:18.858Z,28.10
2019-05-15T11:59:08.594Z,28.50
2019-05-15T12:02:34.837Z,27.30
2019-05-15T12:05:23.888Z,26.20
2019-05-15T12:08:12.701Z,27.60
2019-05-15T12:11:02.903Z,27.60
2019-05-15T12:13:51.693Z,27.10
2019-05-15T12:16:40.365Z,26.10
2019-05-15T12:19:30.284Z,26.30
2019-05-15T12:22:18.772Z,26.90
2019-05-15T12:25:09.823Z,26.80
2019-05-15T12:27:49.937Z,28.20
2019-05-15T12:30:31.301Z,28.60
2019-05-15T12:33:12.576Z,28.30
2019-05-15T12:35:42.261Z,27.60
2019-05-15T12:38:31.429Z,27.60
2019-05-15T13:00:52.332Z,27.90
2019-05-15T13:03:21.732Z,26.60
2019-05-15T13:06:10.501Z,26.30
2019-05-15T13:08:59.632Z,27.10
2019-05-15T13:11:49.168Z,27.30
2019-05-15T13:14:38.955Z,27.50
2019-05-15T13:17:29.159Z,28.10
2019-05-15T13:20:18.590Z,27.60
2019-05-15T13:23:06.940Z,26.10
2019-05-15T13:25:55.412Z,25.80
2019-05-15T13:28:37.025Z,27.70
2019-05-15T13:31:19.138Z,27.10
2019-05-15T13:34:00.287Z,28.40
2019-05-15T13:36:41.939Z,27.80
2019-05-15T13:39:22.739Z,28.20
2019-05-15T13:41:52.654Z,27.90
2019-05-15T13:44:41.178Z,27.00
2019-05-15T13:47:29.683Z,27.50
2019-05-15T13:50:19.474Z,29.00
2019-05-15T13:53:10.804Z,28.00
2019-05-15T13:55:58.522Z,28.40
2019-05-15T13:58:48.153Z,28.10
2019-05-15T14:01:39.278Z,28.00
2019-05-15T14:04:26.403Z,27.50
2019-05-15T14:07:44.953Z,27.80
2019-05-15T14:10:22.736Z,26.80
2019-05-15T14:13:11.511Z,27.50
2019-05-15T14:15:59.980Z,27.90
2019-05-15T14:18:48.812Z,27.70
2019-05-15T14:21:37.994Z,26.80
2019-05-15T14:24:27.483Z,26.90
2019-05-15T14:27:15.949Z,27.70
2019-05-15T14:29:58.196Z,27.10
2019-05-15T14:32:39.540Z,27.20
2019-05-15T14:35:20.669Z,27.00
2019-05-15T14:38:06.539Z,27.30
2019-05-15T14:40:44.886Z,26.80
2019-05-15T14:43:26.438Z,27.30
2019-05-15T14:46:08.226Z,27.60
2019-05-15T14:48:49.239Z,27.10
2019-05-15T14:51:30.388Z,26.60
2019-05-15T14:54:11.977Z,27.20
2019-05-15T14:56:53.715Z,26.20
2019-05-15T14:59:23.148Z,27.20
2019-05-15T15:02:11.621Z,27.50
2019-05-15T15:05:00.145Z,27.70
2019-05-15T15:07:49.249Z,28.60
2019-05-15T15:10:39.032Z,28.60
2019-05-15T15:13:28.794Z,28.80
2019-05-15T15:16:19.314Z,28.40
2019-05-15T15:19:08.240Z,29.40
2019-05-15T15:21:58.008Z,28.90
2019-05-15T15:24:48.241Z,28.80
2019-05-15T15:27:38.673Z,29.00
2019-05-15T15:30:29.345Z,28.40
2019-05-15T15:33:17.311Z,28.80
2019-05-15T15:36:08.679Z,28.60
2019-05-15T15:38:58.801Z,29.40
2019-05-15T15:41:48.528Z,29.70
2019-05-15T15:44:38.081Z,29.40
2019-05-15T15:47:28.168Z,29.80
2019-05-15T15:50:18.363Z,28.80
2019-05-15T15:53:08.846Z,28.90
2019-05-15T15:55:57.136Z,29.20
2019-05-15T15:58:45.610Z,29.60
2019-05-15T16:01:34.115Z,29.90
2019-05-15T16:04:24.658Z,29.70
2019-05-15T16:07:13.135Z,29.90
2019-05-15T16:10:01.632Z,30.10
2019-05-15T16:12:50.384Z,30.30
2019-05-15T16:15:38.873Z,30.00
2019-05-15T16:18:28.879Z,30.30
2019-05-15T16:21:19.293Z,30.90
2019-05-15T16:24:17.427Z,31.30
2019-05-15T16:26:57.970Z,31.30
2019-05-15T16:29:40.832Z,31.20
2019-05-15T16:32:22.011Z,31.60
2019-05-15T16:35:03.443Z,31.40
2019-05-15T16:37:44.307Z,31.90
2019-05-15T16:43:33.988Z,32.20
2019-05-15T16:46:14.905Z,31.70
2019-05-15T16:48:58.393Z,32.40
2019-05-15T16:51:39.774Z,32.10
2019-05-15T16:54:20.944Z,32.00
2019-05-15T16:57:01.819Z,32.00
2019-05-15T16:59:43.418Z,31.60
2019-05-15T17:02:25.126Z,31.90
2019-05-15T17:05:05.789Z,31.20
2019-05-15T17:07:48.951Z,31.80
2019-05-15T17:10:29.565Z,32.40
2019-05-15T17:13:10.738Z,31.20
2019-05-15T17:15:52.232Z,31.00
2019-05-15T17:18:32.890Z,30.70
2019-05-15T17:21:13.870Z,30.80
2019-05-15T17:23:54.965Z,30.60
2019-05-15T17:26:36.395Z,30.80
2019-05-15T17:29:18.550Z,31.20
2019-05-15T17:31:59.899Z,31.30
2019-05-15T17:34:39.800Z,30.40
2019-05-15T17:37:28.705Z,30.90
2019-05-15T17:40:18.620Z,30.00
2019-05-15T17:43:09.379Z,29.90
2019-05-15T17:45:58.248Z,29.50
2019-05-15T17:48:54.266Z,29.70
2019-05-15T17:51:38.388Z,29.60
2019-05-15T17:54:28.746Z,29.80
2019-05-15T17:57:19.439Z,29.60
2019-05-15T18:00:12.223Z,29.20
2019-05-15T18:02:58.798Z,29.40
2019-05-15T18:05:48.405Z,29.70
2019-05-15T18:08:39.041Z,29.70
2019-05-15T18:11:27.867Z,29.70
2019-05-15T18:14:17.646Z,29.70
2019-05-15T18:17:08.688Z,29.50
2019-05-15T18:19:58.150Z,29.80
2019-05-15T18:22:48.169Z,30.00
2019-05-15T18:25:38.528Z,29.90
2019-05-15T18:28:21.219Z,30.00
2019-05-15T18:30:51.001Z,30.00
2019-05-15T18:36:19.998Z,30.00
2019-05-15T18:39:08.659Z,29.90
2019-05-15T18:41:58.940Z,29.90
2019-05-15T18:44:49.054Z,30.00
2019-05-15T18:47:39.047Z,30.60
2019-05-15T18:50:28.424Z,30.60
2019-05-15T18:53:18.080Z,30.30
2019-05-15T18:56:08.931Z,30.90
2019-05-15T18:58:57.799Z,30.70
2019-05-15T19:01:48.027Z,31.10
2019-05-15T19:04:38.422Z,30.40
2019-05-15T19:07:28.644Z,30.40
2019-05-15T19:10:18.780Z,30.60
2019-05-15T19:13:08.855Z,31.10
2019-05-15T19:15:58.240Z,31.30
2019-05-15T19:18:47.935Z,31.40
2019-05-15T19:21:38.235Z,31.50
2019-05-15T19:24:27.373Z,31.20
2019-05-15T19:27:18.499Z,31.50
2019-05-15T19:29:59.163Z,31.40
2019-05-15T19:32:40.655Z,31.80
2019-05-15T19:35:21.731Z,31.70
2019-05-15T19:38:03.003Z,32.20
2019-05-15T19:40:44.264Z,32.40
2019-05-15T19:43:25.976Z,32.90
2019-05-15T19:46:08.009Z,32.80
2019-05-15T19:48:38.628Z,33.30
2019-05-15T19:51:28.985Z,33.20
2019-05-15T19:54:18.357Z,33.10
2019-05-15T19:57:08.118Z,33.10
2019-05-15T19:59:58.395Z,33.10
2019-05-15T20:02:48.615Z,34.10
2019-05-15T20:05:38.064Z,34.60
2019-05-15T20:08:27.881Z,34.70
2019-05-15T20:11:18.448Z,36.30
2019-05-15T20:14:07.760Z,37.30
2019-05-15T20:16:58.792Z,37.20
2019-05-15T20:19:28.780Z,37.60
2019-05-15T20:22:18.883Z,37.50
2019-05-15T20:25:08.777Z,37.50
2019-05-15T20:27:57.263Z,37.60
2019-05-15T20:30:48.087Z,38.10
2019-05-15T20:33:37.759Z,38.50
2019-05-15T20:36:26.251Z,38.50
2019-05-15T20:39:15.020Z,38.60
2019-05-15T20:42:03.471Z,39.10
2019-05-15T20:44:51.956Z,39.30
2019-05-15T20:47:40.419Z,39.50
2019-05-15T20:50:29.050Z,40.00
2019-05-15T20:53:19.207Z,40.40
2019-05-15T20:56:08.306Z,40.80
2019-05-15T20:58:58.295Z,41.30
2019-05-15T21:01:48.276Z,41.20
2019-05-15T21:04:38.521Z,41.40
2019-05-15T21:07:38.547Z,42.10
2019-05-15T21:10:21.314Z,42.70
2019-05-15T21:13:08.909Z,43.00
2019-05-15T21:15:58.951Z,43.50
2019-05-15T21:18:47.863Z,44.20
2019-05-15T21:21:38.437Z,45.00
2019-05-15T21:24:28.319Z,45.10
2019-05-15T21:27:18.776Z,45.30
2019-05-15T21:29:59.803Z,45.70
2019-05-15T21:32:41.369Z,46.90
2019-05-15T21:35:23.071Z,46.50
2019-05-15T21:38:04.416Z,46.40
2019-05-15T21:40:48.958Z,47.00
2019-05-15T21:43:29.943Z,47.30
2019-05-15T21:46:11.270Z,48.00
2019-05-15T21:48:52.755Z,48.40
2019-05-15T21:51:34.359Z,48.70
2019-05-15T21:54:17.976Z,48.70
2019-05-15T21:57:18.666Z,48.80
2019-05-15T21:59:42.582Z,48.80
2019-05-15T22:02:24.048Z,49.10
2019-05-15T22:04:56.117Z,49.90
2019-05-15T22:07:44.028Z,49.90
2019-05-15T22:10:32.535Z,50.10
2019-05-15T22:13:21.135Z,50.80
2019-05-15T22:15:50.564Z,50.60
2019-05-15T22:18:39.061Z,51.00
2019-05-15T22:21:27.582Z,51.70
2019-05-15T22:24:17.843Z,51.90
2019-05-15T22:27:06.464Z,52.00
2019-05-15T22:29:48.182Z,52.40
2019-05-15T22:32:29.223Z,52.60
2019-05-15T22:35:14.055Z,52.60
2019-05-15T22:37:52.078Z,53.10
2019-05-15T22:40:40.558Z,53.10
2019-05-15T22:43:29.350Z,53.30
2019-05-15T22:46:18.622Z,54.10
2019-05-15T22:49:07.943Z,53.70
2019-05-15T22:51:58.148Z,54.00
2019-05-15T22:54:47.930Z,54.30
2019-05-15T22:57:38.638Z,54.80
2019-05-15T23:00:28.948Z,55.80
2019-05-15T23:03:18.961Z,55.90
2019-05-15T23:06:08.344Z,55.90
2019-05-15T23:08:58.100Z,55.90
2019-05-15T23:11:48.516Z,55.90
2019-05-15T23:14:38.024Z,55.90
2019-05-15T23:17:20.452Z,56.20
2019-05-15T23:20:01.147Z,56.20
2019-05-15T23:22:42.770Z,56.80
2019-05-15T23:25:24.180Z,57.00
2019-05-15T23:28:05.273Z,57.00
2019-05-15T23:30:48.527Z,57.20
2019-05-15T23:33:29.252Z,57.40
2019-05-15T23:36:10.498Z,57.60
2019-05-15T23:38:51.311Z,57.90
2019-05-15T23:41:32.200Z,58.40
2019-05-15T23:44:13.004Z,58.60
2019-05-15T23:46:53.839Z,58.80
2019-05-15T23:49:35.195Z,59.40
2019-05-15T23:52:16.691Z,59.60
2019-05-15T23:54:58.925Z,60.40
2019-05-15T23:57:39.744Z,60.20
